sensor_id;sensor_type;location;lat;lon;timestamp;P1;durP1;ratioP1;P2;durP2;ratioP2
35961;SDS011;22044;48.298;10.008;2022-12-15T00:00:52;29.07;;;19.37;;
35961;SDS011;22044;48.298;10.008;2022-12-15T00:03:56;33.93;;;21.70;;
35961;SDS011;22044;48.298;10.008;2022-12-15T00:07:00;36.53;;;22.77;;
35961;SDS011;22044;48.298;10.008;2022-12-15T00:10:03;36.33;;;23.40;;
35961;SDS011;22044;48.298;10.008;2022-12-15T00:13:08;38.77;;;23.83;;
35961;SDS011;22044;48.298;10.008;2022-12-15T00:16:12;38.83;;;23.37;;
35961;SDS011;22044;48.298;10.008;2022-12-15T00:19:15;40.67;;;24.77;;
35961;SDS011;22044;48.298;10.008;2022-12-15T00:22:19;40.50;;;24.87;;
35961;SDS011;22044;48.298;10.008;2022-12-15T00:25:22;41.27;;;26.00;;
35961;SDS011;22044;48.298;10.008;2022-12-15T00:28:25;41.27;;;26.57;;
35961;SDS011;22044;48.298;10.008;2022-12-15T00:31:28;41.53;;;25.60;;
35961;SDS011;22044;48.298;10.008;2022-12-15T00:34:31;41.53;;;26.30;;
35961;SDS011;22044;48.298;10.008;2022-12-15T00:37:36;40.93;;;26.77;;
35961;SDS011;22044;48.298;10.008;2022-12-15T00:40:39;40.37;;;25.70;;
35961;SDS011;22044;48.298;10.008;2022-12-15T00:43:25;36.83;;;22.93;;
35961;SDS011;22044;48.298;10.008;2022-12-15T00:46:11;41.53;;;25.90;;
35961;SDS011;22044;48.298;10.008;2022-12-15T00:49:15;36.67;;;24.27;;
35961;SDS011;22044;48.298;10.008;2022-12-15T00:52:15;35.93;;;23.63;;
35961;SDS011;22044;48.298;10.008;2022-12-15T00:55:20;36.17;;;23.23;;
35961;SDS011;22044;48.298;10.008;2022-12-15T00:58:23;34.10;;;23.60;;
35961;SDS011;22044;48.298;10.008;2022-12-15T01:01:26;36.03;;;23.43;;
35961;SDS011;22044;48.298;10.008;2022-12-15T01:04:29;35.33;;;22.30;;
35961;SDS011;22044;48.298;10.008;2022-12-15T01:07:33;34.10;;;22.53;;
35961;SDS011;22044;48.298;10.008;2022-12-15T01:10:37;36.30;;;22.33;;
35961;SDS011;22044;48.298;10.008;2022-12-15T01:13:40;35.37;;;22.97;;
35961;SDS011;22044;48.298;10.008;2022-12-15T01:16:43;34.33;;;21.67;;
35961;SDS011;22044;48.298;10.008;2022-12-15T01:19:46;31.70;;;21.30;;
35961;SDS011;22044;48.298;10.008;2022-12-15T01:22:50;30.40;;;21.20;;
35961;SDS011;22044;48.298;10.008;2022-12-15T01:25:38;29.00;;;20.87;;
35961;SDS011;22044;48.298;10.008;2022-12-15T01:28:24;28.47;;;19.47;;
35961;SDS011;22044;48.298;10.008;2022-12-15T01:31:10;32.13;;;20.97;;
35961;SDS011;22044;48.298;10.008;2022-12-15T01:33:56;28.37;;;20.63;;
35961;SDS011;22044;48.298;10.008;2022-12-15T01:36:41;29.33;;;19.73;;
35961;SDS011;22044;48.298;10.008;2022-12-15T01:39:27;29.27;;;20.40;;
35961;SDS011;22044;48.298;10.008;2022-12-15T01:42:34;29.07;;;19.63;;
35961;SDS011;22044;48.298;10.008;2022-12-15T01:48:36;28.77;;;20.70;;
35961;SDS011;22044;48.298;10.008;2022-12-15T01:51:26;29.63;;;21.20;;
35961;SDS011;22044;48.298;10.008;2022-12-15T01:54:16;28.43;;;20.53;;
35961;SDS011;22044;48.298;10.008;2022-12-15T01:57:05;29.07;;;20.07;;
35961;SDS011;22044;48.298;10.008;2022-12-15T01:59:57;32.60;;;21.50;;
35961;SDS011;22044;48.298;10.008;2022-12-15T02:02:45;28.87;;;20.57;;
35961;SDS011;22044;48.298;10.008;2022-12-15T02:05:31;31.90;;;21.53;;
35961;SDS011;22044;48.298;10.008;2022-12-15T02:08:17;30.83;;;21.67;;
35961;SDS011;22044;48.298;10.008;2022-12-15T02:11:08;31.27;;;21.00;;
35961;SDS011;22044;48.298;10.008;2022-12-15T02:14:13;30.37;;;19.67;;
35961;SDS011;22044;48.298;10.008;2022-12-15T02:17:13;32.87;;;21.20;;
35961;SDS011;22044;48.298;10.008;2022-12-15T02:20:29;31.27;;;20.00;;
35961;SDS011;22044;48.298;10.008;2022-12-15T02:23:52;30.80;;;20.27;;
35961;SDS011;22044;48.298;10.008;2022-12-15T02:30:23;31.40;;;21.77;;
35961;SDS011;22044;48.298;10.008;2022-12-15T02:33:19;33.43;;;21.93;;
35961;SDS011;22044;48.298;10.008;2022-12-15T02:36:11;33.57;;;21.30;;
35961;SDS011;22044;48.298;10.008;2022-12-15T02:39:03;32.13;;;22.03;;
35961;SDS011;22044;48.298;10.008;2022-12-15T02:41:49;31.37;;;20.43;;
35961;SDS011;22044;48.298;10.008;2022-12-15T02:44:36;33.30;;;21.00;;
35961;SDS011;22044;48.298;10.008;2022-12-15T02:47:28;34.37;;;20.70;;
35961;SDS011;22044;48.298;10.008;2022-12-15T02:53:30;27.67;;;19.10;;
35961;SDS011;22044;48.298;10.008;2022-12-15T02:56:33;27.70;;;18.63;;
35961;SDS011;22044;48.298;10.008;2022-12-15T02:59:28;29.73;;;18.63;;
35961;SDS011;22044;48.298;10.008;2022-12-15T03:02:23;30.47;;;19.43;;
35961;SDS011;22044;48.298;10.008;2022-12-15T03:05:13;26.57;;;19.50;;
35961;SDS011;22044;48.298;10.008;2022-12-15T03:08:00;28.27;;;19.93;;
35961;SDS011;22044;48.298;10.008;2022-12-15T03:10:45;30.50;;;21.30;;
35961;SDS011;22044;48.298;10.008;2022-12-15T03:13:32;30.00;;;20.30;;
35961;SDS011;22044;48.298;10.008;2022-12-15T03:16:17;32.03;;;21.07;;
35961;SDS011;22044;48.298;10.008;2022-12-15T03:19:03;30.43;;;21.13;;
35961;SDS011;22044;48.298;10.008;2022-12-15T03:21:50;34.40;;;21.17;;
35961;SDS011;22044;48.298;10.008;2022-12-15T03:24:36;31.87;;;20.80;;
35961;SDS011;22044;48.298;10.008;2022-12-15T03:27:22;30.70;;;21.00;;
35961;SDS011;22044;48.298;10.008;2022-12-15T03:30:08;28.97;;;20.00;;
35961;SDS011;22044;48.298;10.008;2022-12-15T03:32:54;29.60;;;20.37;;
35961;SDS011;22044;48.298;10.008;2022-12-15T03:35:39;31.70;;;21.03;;
35961;SDS011;22044;48.298;10.008;2022-12-15T03:38:26;29.70;;;20.07;;
35961;SDS011;22044;48.298;10.008;2022-12-15T03:41:12;33.33;;;22.93;;
35961;SDS011;22044;48.298;10.008;2022-12-15T03:43:58;33.77;;;22.80;;
35961;SDS011;22044;48.298;10.008;2022-12-15T03:46:44;34.03;;;22.40;;
35961;SDS011;22044;48.298;10.008;2022-12-15T03:49:30;36.23;;;24.07;;
35961;SDS011;22044;48.298;10.008;2022-12-15T03:52:15;34.00;;;21.60;;
35961;SDS011;22044;48.298;10.008;2022-12-15T03:55:02;38.33;;;24.33;;
35961;SDS011;22044;48.298;10.008;2022-12-15T03:57:49;37.00;;;22.63;;
35961;SDS011;22044;48.298;10.008;2022-12-15T04:00:35;35.03;;;22.20;;
35961;SDS011;22044;48.298;10.008;2022-12-15T04:03:22;31.80;;;22.00;;
35961;SDS011;22044;48.298;10.008;2022-12-15T04:06:07;34.50;;;22.40;;
35961;SDS011;22044;48.298;10.008;2022-12-15T04:08:53;31.60;;;21.87;;
35961;SDS011;22044;48.298;10.008;2022-12-15T04:11:40;34.33;;;23.13;;
35961;SDS011;22044;48.298;10.008;2022-12-15T04:14:25;36.40;;;23.47;;
35961;SDS011;22044;48.298;10.008;2022-12-15T04:17:11;36.20;;;22.67;;
35961;SDS011;22044;48.298;10.008;2022-12-15T04:19:56;34.47;;;21.30;;
35961;SDS011;22044;48.298;10.008;2022-12-15T04:22:54;32.53;;;22.13;;
35961;SDS011;22044;48.298;10.008;2022-12-15T04:25:39;39.90;;;25.13;;
35961;SDS011;22044;48.298;10.008;2022-12-15T04:28:43;40.30;;;24.60;;
35961;SDS011;22044;48.298;10.008;2022-12-15T04:31:47;44.27;;;26.17;;
35961;SDS011;22044;48.298;10.008;2022-12-15T04:34:50;38.20;;;25.20;;
35961;SDS011;22044;48.298;10.008;2022-12-15T04:37:53;35.13;;;23.73;;
35961;SDS011;22044;48.298;10.008;2022-12-15T04:40:56;36.00;;;23.57;;
35961;SDS011;22044;48.298;10.008;2022-12-15T04:44:01;36.50;;;24.37;;
35961;SDS011;22044;48.298;10.008;2022-12-15T04:47:04;38.47;;;24.00;;
35961;SDS011;22044;48.298;10.008;2022-12-15T04:50:08;39.70;;;25.03;;
35961;SDS011;22044;48.298;10.008;2022-12-15T04:53:11;35.60;;;23.43;;
35961;SDS011;22044;48.298;10.008;2022-12-15T04:56:16;35.77;;;23.73;;
35961;SDS011;22044;48.298;10.008;2022-12-15T04:59:21;37.77;;;24.97;;
35961;SDS011;22044;48.298;10.008;2022-12-15T05:02:24;35.83;;;23.53;;
35961;SDS011;22044;48.298;10.008;2022-12-15T05:05:27;40.23;;;25.17;;
35961;SDS011;22044;48.298;10.008;2022-12-15T05:08:30;40.87;;;25.60;;
35961;SDS011;22044;48.298;10.008;2022-12-15T05:11:33;35.70;;;22.80;;
35961;SDS011;22044;48.298;10.008;2022-12-15T05:14:37;42.47;;;24.67;;
35961;SDS011;22044;48.298;10.008;2022-12-15T05:17:41;38.70;;;24.87;;
35961;SDS011;22044;48.298;10.008;2022-12-15T05:20:44;44.27;;;25.50;;
35961;SDS011;22044;48.298;10.008;2022-12-15T05:23:47;40.90;;;25.20;;
35961;SDS011;22044;48.298;10.008;2022-12-15T05:26:50;38.27;;;24.47;;
35961;SDS011;22044;48.298;10.008;2022-12-15T05:29:54;39.53;;;25.17;;
35961;SDS011;22044;48.298;10.008;2022-12-15T05:32:58;41.87;;;26.70;;
35961;SDS011;22044;48.298;10.008;2022-12-15T05:35:47;37.73;;;25.20;;
35961;SDS011;22044;48.298;10.008;2022-12-15T05:38:33;37.07;;;24.20;;
35961;SDS011;22044;48.298;10.008;2022-12-15T05:41:19;42.50;;;26.20;;
35961;SDS011;22044;48.298;10.008;2022-12-15T05:44:06;44.23;;;27.53;;
35961;SDS011;22044;48.298;10.008;2022-12-15T05:46:53;44.20;;;27.13;;
35961;SDS011;22044;48.298;10.008;2022-12-15T05:49:39;46.50;;;26.33;;
35961;SDS011;22044;48.298;10.008;2022-12-15T05:52:25;42.37;;;26.23;;
35961;SDS011;22044;48.298;10.008;2022-12-15T05:55:10;43.90;;;26.93;;
35961;SDS011;22044;48.298;10.008;2022-12-15T05:57:56;47.63;;;27.80;;
35961;SDS011;22044;48.298;10.008;2022-12-15T06:00:41;46.80;;;28.60;;
35961;SDS011;22044;48.298;10.008;2022-12-15T06:03:28;49.97;;;29.40;;
35961;SDS011;22044;48.298;10.008;2022-12-15T06:06:14;43.03;;;26.23;;
35961;SDS011;22044;48.298;10.008;2022-12-15T06:08:59;49.40;;;29.70;;
35961;SDS011;22044;48.298;10.008;2022-12-15T06:11:46;46.40;;;28.43;;
35961;SDS011;22044;48.298;10.008;2022-12-15T06:14:31;47.27;;;28.17;;
35961;SDS011;22044;48.298;10.008;2022-12-15T06:17:18;44.77;;;28.17;;
35961;SDS011;22044;48.298;10.008;2022-12-15T06:20:06;45.63;;;26.73;;
35961;SDS011;22044;48.298;10.008;2022-12-15T06:22:52;49.90;;;28.13;;
35961;SDS011;22044;48.298;10.008;2022-12-15T06:25:38;43.97;;;27.50;;
35961;SDS011;22044;48.298;10.008;2022-12-15T06:28:23;45.43;;;28.07;;
35961;SDS011;22044;48.298;10.008;2022-12-15T06:31:10;46.67;;;35.40;;
35961;SDS011;22044;48.298;10.008;2022-12-15T06:33:57;43.17;;;27.17;;
35961;SDS011;22044;48.298;10.008;2022-12-15T06:36:44;52.43;;;28.10;;
35961;SDS011;22044;48.298;10.008;2022-12-15T06:39:30;46.00;;;27.17;;
35961;SDS011;22044;48.298;10.008;2022-12-15T06:42:15;47.50;;;26.73;;
35961;SDS011;22044;48.298;10.008;2022-12-15T06:45:01;48.17;;;27.90;;
35961;SDS011;22044;48.298;10.008;2022-12-15T06:47:47;50.73;;;29.17;;
35961;SDS011;22044;48.298;10.008;2022-12-15T06:50:33;49.97;;;29.00;;
35961;SDS011;22044;48.298;10.008;2022-12-15T06:53:21;46.23;;;28.77;;
35961;SDS011;22044;48.298;10.008;2022-12-15T06:56:17;50.97;;;29.33;;
35961;SDS011;22044;48.298;10.008;2022-12-15T06:59:05;50.20;;;29.47;;
35961;SDS011;22044;48.298;10.008;2022-12-15T07:01:52;53.20;;;30.07;;
35961;SDS011;22044;48.298;10.008;2022-12-15T07:04:37;57.07;;;31.63;;
35961;SDS011;22044;48.298;10.008;2022-12-15T07:07:23;55.00;;;30.80;;
35961;SDS011;22044;48.298;10.008;2022-12-15T07:10:10;56.30;;;30.37;;
35961;SDS011;22044;48.298;10.008;2022-12-15T07:12:56;53.33;;;31.20;;
35961;SDS011;22044;48.298;10.008;2022-12-15T07:15:42;55.23;;;31.07;;
35961;SDS011;22044;48.298;10.008;2022-12-15T07:18:28;53.10;;;31.00;;
35961;SDS011;22044;48.298;10.008;2022-12-15T07:21:13;53.97;;;31.63;;
35961;SDS011;22044;48.298;10.008;2022-12-15T07:23:59;52.50;;;30.40;;
35961;SDS011;22044;48.298;10.008;2022-12-15T07:26:46;54.57;;;31.47;;
35961;SDS011;22044;48.298;10.008;2022-12-15T07:29:31;49.70;;;30.57;;
35961;SDS011;22044;48.298;10.008;2022-12-15T07:32:17;51.90;;;30.20;;
35961;SDS011;22044;48.298;10.008;2022-12-15T07:35:03;54.70;;;30.53;;
35961;SDS011;22044;48.298;10.008;2022-12-15T07:37:51;50.73;;;30.27;;
35961;SDS011;22044;48.298;10.008;2022-12-15T07:40:36;49.43;;;28.77;;
35961;SDS011;22044;48.298;10.008;2022-12-15T07:43:23;50.50;;;29.00;;
35961;SDS011;22044;48.298;10.008;2022-12-15T07:46:09;53.07;;;29.27;;
35961;SDS011;22044;48.298;10.008;2022-12-15T07:48:55;54.20;;;30.83;;
35961;SDS011;22044;48.298;10.008;2022-12-15T07:51:40;53.03;;;30.70;;
35961;SDS011;22044;48.298;10.008;2022-12-15T07:54:26;59.77;;;31.93;;
35961;SDS011;22044;48.298;10.008;2022-12-15T07:57:11;54.33;;;31.17;;
35961;SDS011;22044;48.298;10.008;2022-12-15T07:59:58;57.17;;;30.23;;
35961;SDS011;22044;48.298;10.008;2022-12-15T08:02:44;54.83;;;31.20;;
35961;SDS011;22044;48.298;10.008;2022-12-15T08:05:29;52.43;;;31.13;;
35961;SDS011;22044;48.298;10.008;2022-12-15T08:08:15;55.97;;;32.17;;
35961;SDS011;22044;48.298;10.008;2022-12-15T08:11:02;55.70;;;32.57;;
35961;SDS011;22044;48.298;10.008;2022-12-15T08:13:48;49.83;;;29.00;;
35961;SDS011;22044;48.298;10.008;2022-12-15T08:16:35;53.10;;;29.70;;
35961;SDS011;22044;48.298;10.008;2022-12-15T08:19:21;51.07;;;29.60;;
35961;SDS011;22044;48.298;10.008;2022-12-15T08:22:07;51.10;;;29.57;;
35961;SDS011;22044;48.298;10.008;2022-12-15T08:24:54;49.23;;;30.03;;
35961;SDS011;22044;48.298;10.008;2022-12-15T08:27:40;50.37;;;29.53;;
35961;SDS011;22044;48.298;10.008;2022-12-15T08:30:25;55.50;;;29.57;;
35961;SDS011;22044;48.298;10.008;2022-12-15T08:33:13;50.27;;;28.47;;
35961;SDS011;22044;48.298;10.008;2022-12-15T08:35:58;51.80;;;29.10;;
35961;SDS011;22044;48.298;10.008;2022-12-15T08:38:46;52.47;;;30.63;;
35961;SDS011;22044;48.298;10.008;2022-12-15T08:41:32;49.37;;;28.43;;
35961;SDS011;22044;48.298;10.008;2022-12-15T08:44:17;49.00;;;29.43;;
35961;SDS011;22044;48.298;10.008;2022-12-15T08:47:03;45.27;;;28.87;;
35961;SDS011;22044;48.298;10.008;2022-12-15T08:49:50;50.63;;;30.70;;
35961;SDS011;22044;48.298;10.008;2022-12-15T08:52:36;51.63;;;29.93;;
35961;SDS011;22044;48.298;10.008;2022-12-15T08:55:24;49.00;;;29.13;;
35961;SDS011;22044;48.298;10.008;2022-12-15T08:58:09;49.70;;;27.77;;
35961;SDS011;22044;48.298;10.008;2022-12-15T09:00:58;51.63;;;29.90;;
35961;SDS011;22044;48.298;10.008;2022-12-15T09:03:44;48.97;;;29.53;;
35961;SDS011;22044;48.298;10.008;2022-12-15T09:06:32;46.87;;;27.07;;
35961;SDS011;22044;48.298;10.008;2022-12-15T09:09:19;43.00;;;27.40;;
35961;SDS011;22044;48.298;10.008;2022-12-15T09:12:05;56.53;;;30.00;;
35961;SDS011;22044;48.298;10.008;2022-12-15T09:14:50;49.83;;;29.30;;
35961;SDS011;22044;48.298;10.008;2022-12-15T09:17:36;51.10;;;30.10;;
35961;SDS011;22044;48.298;10.008;2022-12-15T09:20:21;55.53;;;28.43;;
35961;SDS011;22044;48.298;10.008;2022-12-15T09:23:08;48.77;;;28.50;;
35961;SDS011;22044;48.298;10.008;2022-12-15T09:25:58;46.67;;;28.73;;
35961;SDS011;22044;48.298;10.008;2022-12-15T09:28:44;49.00;;;30.23;;
35961;SDS011;22044;48.298;10.008;2022-12-15T09:31:30;48.47;;;29.83;;
35961;SDS011;22044;48.298;10.008;2022-12-15T09:34:17;53.13;;;30.00;;
35961;SDS011;22044;48.298;10.008;2022-12-15T09:37:03;51.53;;;30.63;;
35961;SDS011;22044;48.298;10.008;2022-12-15T09:39:50;47.90;;;29.90;;
35961;SDS011;22044;48.298;10.008;2022-12-15T09:42:36;52.97;;;31.33;;
35961;SDS011;22044;48.298;10.008;2022-12-15T09:45:23;49.10;;;30.80;;
35961;SDS011;22044;48.298;10.008;2022-12-15T09:48:11;47.07;;;29.80;;
35961;SDS011;22044;48.298;10.008;2022-12-15T09:51:01;50.83;;;31.47;;
35961;SDS011;22044;48.298;10.008;2022-12-15T09:53:48;57.20;;;33.40;;
35961;SDS011;22044;48.298;10.008;2022-12-15T09:56:38;57.77;;;33.63;;
35961;SDS011;22044;48.298;10.008;2022-12-15T09:59:28;54.23;;;33.37;;
35961;SDS011;22044;48.298;10.008;2022-12-15T10:02:27;55.77;;;32.87;;
35961;SDS011;22044;48.298;10.008;2022-12-15T10:05:36;54.37;;;32.57;;
35961;SDS011;22044;48.298;10.008;2022-12-15T10:08:31;52.57;;;30.87;;
35961;SDS011;22044;48.298;10.008;2022-12-15T10:11:20;56.43;;;32.20;;
35961;SDS011;22044;48.298;10.008;2022-12-15T10:14:17;54.43;;;32.53;;
35961;SDS011;22044;48.298;10.008;2022-12-15T10:17:11;56.80;;;32.90;;
35961;SDS011;22044;48.298;10.008;2022-12-15T10:20:05;66.50;;;33.47;;
35961;SDS011;22044;48.298;10.008;2022-12-15T10:23:00;65.00;;;34.57;;
35961;SDS011;22044;48.298;10.008;2022-12-15T10:25:55;58.20;;;35.40;;
35961;SDS011;22044;48.298;10.008;2022-12-15T10:28:50;55.33;;;33.00;;
35961;SDS011;22044;48.298;10.008;2022-12-15T10:31:49;59.70;;;34.67;;
35961;SDS011;22044;48.298;10.008;2022-12-15T10:34:37;56.47;;;33.03;;
35961;SDS011;22044;48.298;10.008;2022-12-15T10:37:26;60.90;;;33.80;;
35961;SDS011;22044;48.298;10.008;2022-12-15T10:40:16;62.70;;;36.37;;
35961;SDS011;22044;48.298;10.008;2022-12-15T10:43:05;65.40;;;37.40;;
35961;SDS011;22044;48.298;10.008;2022-12-15T10:45:59;64.50;;;37.27;;
35961;SDS011;22044;48.298;10.008;2022-12-15T10:48:47;69.90;;;36.77;;
35961;SDS011;22044;48.298;10.008;2022-12-15T10:51:35;64.37;;;38.53;;
35961;SDS011;22044;48.298;10.008;2022-12-15T10:54:27;67.30;;;37.27;;
35961;SDS011;22044;48.298;10.008;2022-12-15T10:57:20;67.73;;;37.00;;
35961;SDS011;22044;48.298;10.008;2022-12-15T11:00:24;67.70;;;37.13;;
35961;SDS011;22044;48.298;10.008;2022-12-15T11:03:19;62.40;;;35.63;;
35961;SDS011;22044;48.298;10.008;2022-12-15T11:06:14;64.63;;;36.37;;
35961;SDS011;22044;48.298;10.008;2022-12-15T11:09:08;71.80;;;39.20;;
35961;SDS011;22044;48.298;10.008;2022-12-15T11:12:15;76.03;;;39.43;;
35961;SDS011;22044;48.298;10.008;2022-12-15T11:15:39;76.87;;;39.50;;
35961;SDS011;22044;48.298;10.008;2022-12-15T11:18:28;85.67;;;41.23;;
35961;SDS011;22044;48.298;10.008;2022-12-15T11:21:23;84.60;;;42.97;;
35961;SDS011;22044;48.298;10.008;2022-12-15T11:24:10;91.07;;;43.70;;
35961;SDS011;22044;48.298;10.008;2022-12-15T11:27:00;87.70;;;43.63;;
35961;SDS011;22044;48.298;10.008;2022-12-15T11:29:53;92.77;;;46.00;;
35961;SDS011;22044;48.298;10.008;2022-12-15T11:32:45;83.70;;;44.60;;
35961;SDS011;22044;48.298;10.008;2022-12-15T11:35:47;96.97;;;46.00;;
35961;SDS011;22044;48.298;10.008;2022-12-15T11:38:46;89.00;;;45.03;;
35961;SDS011;22044;48.298;10.008;2022-12-15T11:41:37;90.47;;;45.60;;
35961;SDS011;22044;48.298;10.008;2022-12-15T11:44:29;82.83;;;43.20;;
35961;SDS011;22044;48.298;10.008;2022-12-15T11:47:25;93.90;;;44.17;;
35961;SDS011;22044;48.298;10.008;2022-12-15T11:50:24;86.27;;;44.93;;
35961;SDS011;22044;48.298;10.008;2022-12-15T11:53:17;85.33;;;44.43;;
35961;SDS011;22044;48.298;10.008;2022-12-15T11:56:23;93.33;;;43.87;;
35961;SDS011;22044;48.298;10.008;2022-12-15T12:02:46;77.03;;;39.30;;
35961;SDS011;22044;48.298;10.008;2022-12-15T12:05:43;77.53;;;38.87;;
35961;SDS011;22044;48.298;10.008;2022-12-15T12:12:09;71.13;;;37.90;;
35961;SDS011;22044;48.298;10.008;2022-12-15T12:15:07;78.60;;;40.97;;
35961;SDS011;22044;48.298;10.008;2022-12-15T12:18:05;72.87;;;39.03;;
35961;SDS011;22044;48.298;10.008;2022-12-15T12:20:57;73.23;;;38.77;;
35961;SDS011;22044;48.298;10.008;2022-12-15T12:23:48;67.37;;;37.40;;
35961;SDS011;22044;48.298;10.008;2022-12-15T12:26:39;76.97;;;39.50;;
35961;SDS011;22044;48.298;10.008;2022-12-15T12:29:31;70.67;;;38.37;;
35961;SDS011;22044;48.298;10.008;2022-12-15T12:32:22;74.97;;;39.80;;
35961;SDS011;22044;48.298;10.008;2022-12-15T12:35:20;75.93;;;39.53;;
35961;SDS011;22044;48.298;10.008;2022-12-15T12:38:11;69.23;;;36.43;;
35961;SDS011;22044;48.298;10.008;2022-12-15T12:41:00;66.17;;;36.23;;
35961;SDS011;22044;48.298;10.008;2022-12-15T12:43:49;73.03;;;39.13;;
35961;SDS011;22044;48.298;10.008;2022-12-15T12:46:40;73.90;;;40.97;;
35961;SDS011;22044;48.298;10.008;2022-12-15T12:49:31;63.57;;;36.87;;
35961;SDS011;22044;48.298;10.008;2022-12-15T12:52:20;69.77;;;36.97;;
35961;SDS011;22044;48.298;10.008;2022-12-15T12:55:20;71.23;;;39.10;;
35961;SDS011;22044;48.298;10.008;2022-12-15T13:01:18;69.77;;;36.73;;
35961;SDS011;22044;48.298;10.008;2022-12-15T13:04:12;71.90;;;37.03;;
35961;SDS011;22044;48.298;10.008;2022-12-15T13:07:28;71.07;;;37.40;;
35961;SDS011;22044;48.298;10.008;2022-12-15T13:10:18;66.80;;;34.40;;
35961;SDS011;22044;48.298;10.008;2022-12-15T13:13:14;68.83;;;37.40;;
35961;SDS011;22044;48.298;10.008;2022-12-15T13:16:21;80.30;;;39.50;;
35961;SDS011;22044;48.298;10.008;2022-12-15T13:19:08;79.80;;;40.43;;
35961;SDS011;22044;48.298;10.008;2022-12-15T13:21:55;74.70;;;39.47;;
35961;SDS011;22044;48.298;10.008;2022-12-15T13:24:44;65.50;;;35.70;;
35961;SDS011;22044;48.298;10.008;2022-12-15T13:27:33;75.80;;;39.37;;
35961;SDS011;22044;48.298;10.008;2022-12-15T13:30:20;72.50;;;39.57;;
35961;SDS011;22044;48.298;10.008;2022-12-15T13:33:12;71.50;;;38.97;;
35961;SDS011;22044;48.298;10.008;2022-12-15T13:36:03;78.23;;;39.67;;
35961;SDS011;22044;48.298;10.008;2022-12-15T13:38:51;77.80;;;40.23;;
35961;SDS011;22044;48.298;10.008;2022-12-15T13:41:39;75.10;;;38.90;;
35961;SDS011;22044;48.298;10.008;2022-12-15T13:44:27;82.00;;;41.07;;
35961;SDS011;22044;48.298;10.008;2022-12-15T13:47:15;75.90;;;40.57;;
35961;SDS011;22044;48.298;10.008;2022-12-15T13:50:09;71.63;;;39.17;;
35961;SDS011;22044;48.298;10.008;2022-12-15T13:52:59;71.67;;;39.77;;
35961;SDS011;22044;48.298;10.008;2022-12-15T13:55:52;71.30;;;38.10;;
35961;SDS011;22044;48.298;10.008;2022-12-15T13:58:43;71.70;;;38.40;;
35961;SDS011;22044;48.298;10.008;2022-12-15T14:01:34;70.93;;;38.50;;
35961;SDS011;22044;48.298;10.008;2022-12-15T14:04:20;77.17;;;38.70;;
35961;SDS011;22044;48.298;10.008;2022-12-15T14:07:07;71.43;;;36.93;;
35961;SDS011;22044;48.298;10.008;2022-12-15T14:09:53;70.60;;;38.67;;
35961;SDS011;22044;48.298;10.008;2022-12-15T14:12:41;69.90;;;38.40;;
35961;SDS011;22044;48.298;10.008;2022-12-15T14:15:29;78.97;;;40.20;;
35961;SDS011;22044;48.298;10.008;2022-12-15T14:18:23;80.57;;;41.67;;
35961;SDS011;22044;48.298;10.008;2022-12-15T14:21:18;72.80;;;38.43;;
35961;SDS011;22044;48.298;10.008;2022-12-15T14:24:14;76.57;;;39.17;;
35961;SDS011;22044;48.298;10.008;2022-12-15T14:27:06;74.83;;;39.90;;
35961;SDS011;22044;48.298;10.008;2022-12-15T14:32:47;76.60;;;40.10;;
35961;SDS011;22044;48.298;10.008;2022-12-15T14:35:35;77.77;;;38.87;;
35961;SDS011;22044;48.298;10.008;2022-12-15T14:38:26;77.73;;;40.23;;
35961;SDS011;22044;48.298;10.008;2022-12-15T14:41:17;76.77;;;40.67;;
35961;SDS011;22044;48.298;10.008;2022-12-15T14:44:05;79.20;;;39.27;;
35961;SDS011;22044;48.298;10.008;2022-12-15T14:46:57;73.90;;;40.00;;
35961;SDS011;22044;48.298;10.008;2022-12-15T14:49:46;79.07;;;40.90;;
35961;SDS011;22044;48.298;10.008;2022-12-15T14:52:33;84.97;;;40.70;;
35961;SDS011;22044;48.298;10.008;2022-12-15T14:55:29;83.60;;;42.10;;
35961;SDS011;22044;48.298;10.008;2022-12-15T14:58:25;76.40;;;38.13;;
35961;SDS011;22044;48.298;10.008;2022-12-15T15:01:20;72.53;;;37.77;;
35961;SDS011;22044;48.298;10.008;2022-12-15T15:04:20;82.57;;;41.33;;
35961;SDS011;22044;48.298;10.008;2022-12-15T15:07:15;75.43;;;39.13;;
35961;SDS011;22044;48.298;10.008;2022-12-15T15:10:02;80.57;;;41.83;;
35961;SDS011;22044;48.298;10.008;2022-12-15T15:13:05;87.30;;;42.80;;
35961;SDS011;22044;48.298;10.008;2022-12-15T15:15:59;82.20;;;39.80;;
35961;SDS011;22044;48.298;10.008;2022-12-15T15:18:49;82.30;;;43.47;;
35961;SDS011;22044;48.298;10.008;2022-12-15T15:21:36;78.73;;;40.33;;
35961;SDS011;22044;48.298;10.008;2022-12-15T15:24:24;83.90;;;41.60;;
35961;SDS011;22044;48.298;10.008;2022-12-15T15:27:24;81.50;;;40.37;;
35961;SDS011;22044;48.298;10.008;2022-12-15T15:30:16;81.33;;;40.67;;
35961;SDS011;22044;48.298;10.008;2022-12-15T15:33:05;86.97;;;42.97;;
35961;SDS011;22044;48.298;10.008;2022-12-15T15:35:53;92.47;;;54.22;;
35961;SDS011;22044;48.298;10.008;2022-12-15T15:38:41;81.17;;;43.37;;
35961;SDS011;22044;48.298;10.008;2022-12-15T15:41:31;86.40;;;43.00;;
35961;SDS011;22044;48.298;10.008;2022-12-15T15:44:17;83.93;;;42.07;;
35961;SDS011;22044;48.298;10.008;2022-12-15T15:47:03;76.37;;;39.63;;
35961;SDS011;22044;48.298;10.008;2022-12-15T15:49:49;82.77;;;41.00;;
35961;SDS011;22044;48.298;10.008;2022-12-15T15:52:35;79.33;;;41.60;;
35961;SDS011;22044;48.298;10.008;2022-12-15T15:55:24;86.40;;;40.60;;
35961;SDS011;22044;48.298;10.008;2022-12-15T15:58:16;86.53;;;42.83;;
35961;SDS011;22044;48.298;10.008;2022-12-15T16:01:02;91.90;;;44.67;;
35961;SDS011;22044;48.298;10.008;2022-12-15T16:03:48;90.70;;;42.30;;
35961;SDS011;22044;48.298;10.008;2022-12-15T16:06:34;94.90;;;43.03;;
35961;SDS011;22044;48.298;10.008;2022-12-15T16:09:20;86.10;;;42.33;;
35961;SDS011;22044;48.298;10.008;2022-12-15T16:12:08;83.33;;;42.07;;
35961;SDS011;22044;48.298;10.008;2022-12-15T16:15:13;84.27;;;41.87;;
35961;SDS011;22044;48.298;10.008;2022-12-15T16:17:59;79.40;;;38.53;;
35961;SDS011;22044;48.298;10.008;2022-12-15T16:20:45;84.87;;;42.20;;
35961;SDS011;22044;48.298;10.008;2022-12-15T16:23:33;77.90;;;39.17;;
35961;SDS011;22044;48.298;10.008;2022-12-15T16:26:19;77.23;;;39.07;;
35961;SDS011;22044;48.298;10.008;2022-12-15T16:29:13;81.23;;;40.80;;
35961;SDS011;22044;48.298;10.008;2022-12-15T16:32:03;80.70;;;40.13;;
35961;SDS011;22044;48.298;10.008;2022-12-15T16:34:48;77.77;;;37.23;;
35961;SDS011;22044;48.298;10.008;2022-12-15T16:37:34;76.53;;;40.03;;
35961;SDS011;22044;48.298;10.008;2022-12-15T16:40:21;81.15;;;45.80;;
35961;SDS011;22044;48.298;10.008;2022-12-15T16:43:09;84.63;;;43.63;;
35961;SDS011;22044;48.298;10.008;2022-12-15T16:45:58;84.72;;;51.08;;
35961;SDS011;22044;48.298;10.008;2022-12-15T16:48:46;81.90;;;40.80;;
35961;SDS011;22044;48.298;10.008;2022-12-15T16:51:33;83.57;;;40.40;;